Rhode Island Logo

Providence, RI Single Family Real Estate Listings

206 Total Real Estate Listings * Click on table heading to sort
Date Posted Property Type Style Address Price Living Area Lot Size Price/Sq Ft.
2019-02-15 Single Family Contemporary 14 Maxcy Dr Providence, RI 02906 $701,400 4,392 sq. ft. 9,148 sq. ft. $160
2019-02-15 Single Family Cape Cod 270 Laurel Hill Av Providence, RI 02909 $119,900 1,078 sq. ft. 7,841 sq. ft. $111
2019-02-15 Single Family Raised Ranch 73 Prescott St Providence, RI 02908 $149,900 864 sq. ft. 7,405 sq. ft. $174
2019-02-15 Single Family Colonial 115 Calla St Providence, RI 02905 $224,900 1,450 sq. ft. 5,227 sq. ft. $155
2019-02-15 Single Family Cottage 290 Admiral St Providence, RI 02908 $149,900 1,276 sq. ft. 3,049 sq. ft. $117
2019-02-15 Single Family Colonial 418 Sharon St Providence, RI 02908 $249,900 1,240 sq. ft. 4,792 sq. ft. $202
2019-02-14 Single Family Bungalow 52 Maple St Providence, RI 02903 $229,500 1,811 sq. ft. 3,485 sq. ft. $127
2019-02-14 Single Family Colonial 25 Gesler St Providence, RI 02909 $365,000 2,200 sq. ft. 2,614 sq. ft. $166
2019-02-14 Single Family Colonial 165 Windmill St Providence, RI 02904 $299,900 2,020 sq. ft. 9,148 sq. ft. $148
2019-02-14 Single Family Bungalow 118 Salina St Providence, RI 02908 $229,900 1,274 sq. ft. 4,792 sq. ft. $180
2019-02-13 Single Family Tri-Level 344 Blackstone St Providence, RI 02907 $199,000 2,757 sq. ft. 4,356 sq. ft. $72
2019-02-12 Single Family Colonial 59 Lasalle Dr Providence, RI 02909 $299,900 1,560 sq. ft. 10,019 sq. ft. $192
2019-02-11 Single Family Ranch 35 Verdic Av Providence, RI 02909 $264,900 1,344 sq. ft. 5,663 sq. ft. $197
2019-02-11 Single Family Colonial 250 Gallatin St Providence, RI 02907 $134,900 1,505 sq. ft. 4,792 sq. ft. $90
2019-02-08 Single Family Ranch 14 Iona St Providence, RI 02908 $231,900 1,057 sq. ft. 3,049 sq. ft. $219
2019-02-08 Single Family Ranch 45 Funston Av Providence, RI 02908 $209,900 1,174 sq. ft. 6,534 sq. ft. $179
2019-02-08 Single Family Victorian 94 Daboll St Providence, RI 02907 $199,900 2,151 sq. ft. 3,485 sq. ft. $93
2019-02-07 Single Family Colonial 51 Burnside St Providence, RI 02905 $183,000 1,564 sq. ft. 3,049 sq. ft. $117
2019-02-07 Single Family Colonial 29 Maplehurst Av Providence, RI 02909 $199,900 1,488 sq. ft. 3,920 sq. ft. $134
2019-02-07 Single Family Colonial 39 Carr St Providence, RI 02905 $199,900 1,495 sq. ft. 3,049 sq. ft. $134
2019-02-05 Single Family Colonial 27 Benedict St Providence, RI 02907 $150,000 874 sq. ft. 3,920 sq. ft. $172
2019-02-05 Single Family Cape Cod 66 Louis Av Providence, RI 02907 $219,900 1,229 sq. ft. 4,792 sq. ft. $179
2019-02-05 Single Family Ranch 18 Lynch St Providence, RI 02908 $140,000 960 sq. ft. 3,485 sq. ft. $146
2019-02-05 Single Family Ranch 121 Hazael St Providence, RI 02908 $189,900 1,222 sq. ft. 3,920 sq. ft. $155
2019-02-04 Single Family Cape Cod 57 Rome Av Providence, RI 02908 $279,900 1,382 sq. ft. 7,405 sq. ft. $203
2019-02-04 Single Family Ranch 187 Isabella Av Providence, RI 02908 $245,000 1,055 sq. ft. 4,356 sq. ft. $232
2019-02-03 Single Family Raised Ranch 153 Carpenter St Providence, RI 02903 $229,000 816 sq. ft. 5,227 sq. ft. $281
2019-02-02 Single Family Colonial 377 Wayland Av Providence, RI 02906 $379,000 2,549 sq. ft. 3,920 sq. ft. $149
2019-02-01 Single Family Ranch 15 Brentwood Av Providence, RI 02908 $375,000 2,738 sq. ft. 10,890 sq. ft. $137
2019-01-31 Single Family Cape Cod 145 Sunbury St Providence, RI 02908 $153,000 908 sq. ft. 3,049 sq. ft. $168
2019-01-31 Single Family Colonial 34 Vandewater St Providence, RI 02908 $239,000 1,600 sq. ft. 3,049 sq. ft. $149
2019-01-30 Single Family Colonial 47 Leslie Dr Providence, RI 02908 $359,900 2,766 sq. ft. 9,583 sq. ft. $130
2019-01-30 Single Family Ranch 40 Malvern St Providence, RI 02904 $229,900 1,260 sq. ft. 5,663 sq. ft. $182
2019-01-30 Single Family Colonial 115 Leah St Providence, RI 02908 $229,900 756 sq. ft. 3,920 sq. ft. $304
2019-01-30 Single Family Ranch 107 Russo St Providence, RI 02904 $187,900 1,040 sq. ft. 3,049 sq. ft. $181
2019-01-30 Single Family Cape Cod 140 Dover St Providence, RI 02908 $159,900 1,036 sq. ft. 3,049 sq. ft. $154
2019-01-29 Single Family Split Level 85 Gloucester St Providence, RI 02908 $249,900 1,503 sq. ft. 5,227 sq. ft. $166
2019-01-28 Single Family Raised Ranch 90 Hilarity St Providence, RI 02909 $254,900 1,000 sq. ft. 4,792 sq. ft. $255
2019-01-28 Single Family Raised Ranch 10 Milano St Providence, RI 02904 $194,900 1,052 sq. ft. 6,534 sq. ft. $185
2019-01-28 Single Family Colonial 88 Henrietta St Providence, RI 02904 $274,900 1,560 sq. ft. 5,227 sq. ft. $176
2019-01-28 Single Family Colonial 78 Payton St Providence, RI 02905 $149,000 1,175 sq. ft. 3,049 sq. ft. $127
2019-01-27 Single Family Cape Cod; Colonial 902 Douglas Av Providence, RI 02908 $199,000 1,200 sq. ft. 3,049 sq. ft. $166
2019-01-27 Single Family Bungalow 92 Crescent St Providence, RI 02907 $323,900 2,304 sq. ft. 5,663 sq. ft. $141
2019-01-26 Single Family Raised Ranch 145 Ophelia St Providence, RI 02909 $194,900 828 sq. ft. 4,792 sq. ft. $235
2019-01-26 Single Family Ranch 27 Ophelia St Providence, RI 02909 $199,900 1,008 sq. ft. 3,049 sq. ft. $198
2019-01-26 Single Family Ranch 87 General St Providence, RI 02904 $179,900 1,008 sq. ft. 3,920 sq. ft. $178
2019-01-26 Single Family Colonial 831 Charles St Providence, RI 02904 $189,900 1,450 sq. ft. 4,356 sq. ft. $131
2019-01-25 Single Family Colonial 90 Baxter St Providence, RI 02905 $179,800 800 sq. ft. 3,049 sq. ft. $225
2019-01-25 Single Family Ranch 43 Smart St Providence, RI 02904 $193,900 864 sq. ft. 3,049 sq. ft. $224
2019-01-25 Single Family Ranch 144 Nelson St Providence, RI 02908 $219,000 1,008 sq. ft. 3,920 sq. ft. $217
2019-01-25 Single Family Colonial 57 Sussex St Providence, RI 02908 $199,900 1,716 sq. ft. 3,920 sq. ft. $116
2019-01-24 Single Family Ranch 30 Batcheller Av Providence, RI 02904 $249,900 2,446 sq. ft. 6,098 sq. ft. $102
2019-01-24 Single Family Ranch 140 Leah St Providence, RI 02908 $109,900 1,189 sq. ft. 5,227 sq. ft. $92
2019-01-24 Single Family Ranch 593 Academy Av Providence, RI 02908 $259,900 1,092 sq. ft. 3,920 sq. ft. $238
2019-01-24 Single Family Bungalow 125 Eastwood Av Providence, RI 02909 $155,900 1,800 sq. ft. 3,920 sq. ft. $87
2019-01-23 Single Family 22 Halton St Providence, RI 02907 $159,900 960 sq. ft. 2,614 sq. ft. $167
2019-01-22 Single Family 640 Public St Providence, RI 02907 $174,900 2,178 sq. ft. 2,614 sq. ft. $80
2019-01-21 Single Family Historic; Victorian 234 Lenox Av Providence, RI 02907 $229,900 3,835 sq. ft. 10,019 sq. ft. $60
2019-01-21 Single Family Colonial 7 Pennsylvania Av Providence, RI 02905 $169,900 1,248 sq. ft. 2,614 sq. ft. $136
2019-01-18 Single Family 107 Whitford Av Providence, RI 02908 $259,000 1,352 sq. ft. 4,792 sq. ft. $192
2019-01-17 Single Family Cape Cod 139 Metcalf St Providence, RI 02904 $120,000 1,421 sq. ft. 8,276 sq. ft. $84
2019-01-17 Single Family Cape Cod 281 Massachusetts Av Providence, RI 02905 $199,000 1,808 sq. ft. 5,663 sq. ft. $110
2019-01-15 Single Family Colonial 30 French St Providence, RI 02905 $179,000 1,632 sq. ft. 3,049 sq. ft. $110
2019-01-15 Single Family Ranch 17 Horace St Providence, RI 02909 $169,000 1,341 sq. ft. 6,098 sq. ft. $126
2019-01-14 Single Family Cottage 191 Pleasant St Providence, RI 02906 $479,000 2,086 sq. ft. 5,663 sq. ft. $230
2019-01-14 Single Family Colonial 108 Allston St Providence, RI 02908 $224,900 1,232 sq. ft. 3,485 sq. ft. $183
2019-01-14 Single Family Cottage 25 Milk St Providence, RI 02905 $154,900 739 sq. ft. 0 sq. ft. $210
2019-01-13 Single Family Bungalow 150 Salina St Providence, RI 02908 $165,500 1,405 sq. ft. 0 sq. ft. $118
2019-01-09 Single Family Bungalow 49 Imera Av Providence, RI 02909 $189,000 1,050 sq. ft. 3,485 sq. ft. $180
2019-01-08 Single Family Bungalow; Ranch 43 Bristol Av Providence, RI 02909 $184,900 1,144 sq. ft. 4,792 sq. ft. $162
2019-01-08 Single Family Ranch 42 Barden St Providence, RI 02909 $175,000 960 sq. ft. 3,920 sq. ft. $182
2019-01-07 Single Family Cape Cod; Colonial 101 Leah St Providence, RI 02908 $174,900 1,872 sq. ft. 3,485 sq. ft. $93
2019-01-07 Single Family Colonial 145 Dante St Providence, RI 02908 $189,000 1,428 sq. ft. 4,356 sq. ft. $132
2019-01-07 Single Family 113 Oakland Av Providence, RI 02908 $184,900 1,358 sq. ft. 3,920 sq. ft. $136
2019-01-07 Single Family Colonial 76 Ralph St Providence, RI 02909 $114,900 1,197 sq. ft. 4,792 sq. ft. $96
2019-01-07 Single Family Colonial 67 Trask St Providence, RI 02905 $164,900 1,144 sq. ft. 3,049 sq. ft. $144
2019-01-07 Single Family Bungalow 29 Mount Pleasant Av Providence, RI 02908 $79,900 1,296 sq. ft. 3,920 sq. ft. $62
2019-01-06 Single Family Colonial 384 Union Av Providence, RI 02909 $299,900 2,088 sq. ft. 15,682 sq. ft. $144
2019-01-05 Single Family Ranch 603 Pleasant Valley Pkwy Providence, RI 02908 $224,500 1,104 sq. ft. 4,792 sq. ft. $203
2019-01-04 Single Family Cape Cod 181 Vermont Av Providence, RI 02905 $205,000 1,152 sq. ft. 3,049 sq. ft. $178
2019-01-02 Single Family 75 Forest St Providence, RI 02906 $395,000 1,630 sq. ft. 5,227 sq. ft. $242
2019-01-01 Single Family Cottage 31 Farragut Av Providence, RI 02905 $189,000 1,475 sq. ft. 3,049 sq. ft. $128
2019-01-01 Single Family Cottage 26 Gladstone St Providence, RI 02907 $174,900 1,232 sq. ft. 1,742 sq. ft. $142
2018-12-31 Single Family 39 Althea St Providence, RI 02907 $165,000 1,080 sq. ft. 3,920 sq. ft. $153
2018-12-31 Single Family Ranch 54 Christopher St Providence, RI 02904 $229,900 1,164 sq. ft. 6,098 sq. ft. $198
2018-12-30 Single Family Colonial 133 Clematis St Providence, RI 02908 $149,000 1,249 sq. ft. 5,663 sq. ft. $119
2018-12-29 Single Family Bungalow 148 Johnson Street St Providence, RI 02905 $168,500 1,279 sq. ft. 3,049 sq. ft. $132
2018-12-27 Single Family Colonial 47 Cathedral Av Providence, RI 02908 $329,000 1,884 sq. ft. 4,792 sq. ft. $175
2018-12-26 Single Family 72 Eliza St Providence, RI 02909 $179,900 1,008 sq. ft. 6,534 sq. ft. $178
2018-12-22 Single Family Ranch 27 Wanskuck Av Providence, RI 02904 $215,000 1,032 sq. ft. 6,970 sq. ft. $208
2018-12-21 Single Family 37 Winthrop Av Providence, RI 02908 $169,900 1,482 sq. ft. 4,792 sq. ft. $115
2018-12-16 Single Family Bungalow 279 Althea St Providence, RI 02909 $179,900 768 sq. ft. 3,049 sq. ft. $234
2018-12-14 Single Family Colonial 133 Verndale Av Providence, RI 02907 $249,900 1,596 sq. ft. 4,356 sq. ft. $157
2018-12-13 Single Family Cape Cod 41 Prosper St Providence, RI 02904 $199,900 1,092 sq. ft. 4,792 sq. ft. $183
2018-12-10 Single Family 232 Wallace St Providence, RI 02909 $259,900 1,360 sq. ft. 10,019 sq. ft. $191
2018-12-10 Single Family Victorian 95 Andem St Providence, RI 02908 $200,000 1,961 sq. ft. 4,356 sq. ft. $102
2018-12-10 Single Family Cape Cod 155 Canton St Providence, RI 02908 $244,900 1,289 sq. ft. 4,356 sq. ft. $190
2018-12-07 Single Family Raised Ranch 12 Ortoleva Dr Providence, RI 02909 $249,900 2,304 sq. ft. 3,049 sq. ft. $108
2018-12-06 Single Family Cottage 111 Metcalf St Providence, RI 02904 $159,900 1,069 sq. ft. 3,049 sq. ft. $150
2018-12-06 Single Family 279 Indiana Av Providence, RI 02905 $205,000 1,504 sq. ft. 3,049 sq. ft. $136
2018-12-04 Single Family Ranch 33 Balmoral Av Providence, RI 02908 $219,000 1,026 sq. ft. 5,227 sq. ft. $213
2018-12-04 Single Family Cottage 44 Mercy St Providence, RI 02909 $177,500 1,256 sq. ft. 3,049 sq. ft. $141
2018-12-04 Single Family Contemporary; Split Level 86 Erie St Providence, RI 02908 $268,500 1,387 sq. ft. 6,098 sq. ft. $194
2018-12-03 Single Family Bungalow 31 Brockton St Providence, RI 02904 $239,900 1,284 sq. ft. 3,485 sq. ft. $187
2018-12-01 Single Family 13 - 17 Madison St Providence, RI 02907 $44,900 1,234 sq. ft. 2,178 sq. ft. $36
2018-11-30 Single Family Bungalow; Cottage 14 Berlin St Providence, RI 02908 $164,000 1,123 sq. ft. 3,049 sq. ft. $146
2018-11-29 Single Family Colonial 216 Broadway Wy Providence, RI 02903 $479,000 5,562 sq. ft. 6,098 sq. ft. $86
2018-11-29 Single Family Cottage 182 Ontario St Providence, RI 02907 $149,900 1,521 sq. ft. 4,792 sq. ft. $99
2018-11-29 Single Family Colonial 35 Alger Av Providence, RI 02907 $235,000 1,300 sq. ft. 9,148 sq. ft. $181
2018-11-27 Single Family Ranch 31 Henrietta St Providence, RI 02904 $229,000 912 sq. ft. 3,049 sq. ft. $251
2018-11-27 Single Family Bungalow 137 Salina St Providence, RI 02908 $170,000 1,040 sq. ft. 3,920 sq. ft. $163
2018-11-26 Single Family Raised Ranch 74 Wilna St Providence, RI 02904 $234,900 1,218 sq. ft. 6,534 sq. ft. $193
2018-11-26 Single Family Ranch 141 Ortoleva Dr Providence, RI 02909 $174,500 960 sq. ft. 3,049 sq. ft. $182
2018-11-23 Single Family Colonial Providence, RI $170,000 1,080 sq. ft. 4,356 sq. ft. $157
2018-11-23 Single Family Colonial 103 Detroit Av Providence, RI 02907 $169,000 1,152 sq. ft. 4,792 sq. ft. $147
2018-11-21 Single Family Raised Ranch 14 Myra St Providence, RI 02909 $244,900 1,248 sq. ft. 6,098 sq. ft. $196
2018-11-20 Single Family Bungalow; Colonial 212 Gray St Providence, RI 02908 $268,755 1,658 sq. ft. 6,098 sq. ft. $162
2018-11-19 Single Family 102 Colfax St Providence, RI 02905 $174,900 1,267 sq. ft. 4,356 sq. ft. $138
2018-11-19 Single Family Bungalow 197 Warrington St Providence, RI 02907 $170,000 1,982 sq. ft. 0 sq. ft. $86
2018-11-19 Single Family Colonial 184 Fruit Hill Av Providence, RI 02911 $309,900 1,456 sq. ft. 10,890 sq. ft. $213
2018-11-16 Single Family Cape Cod 71 Corina St Providence, RI 02908 $183,000 1,796 sq. ft. 3,049 sq. ft. $102
2018-11-16 Single Family Ranch 33 Fruit Hill Av Providence, RI 02909 $199,999 1,125 sq. ft. 3,920 sq. ft. $178
2018-11-15 Single Family Colonial; Historic 145 Lexington Av Providence, RI 02907 $214,900 2,837 sq. ft. 8,276 sq. ft. $76
2018-11-13 Single Family Ranch 21 Bel Air Dr Providence, RI 02911 $189,900 899 sq. ft. 7,405 sq. ft. $211
2018-11-13 Single Family Victorian 31 Stamford Av Providence, RI 02907 $220,000 1,319 sq. ft. 3,485 sq. ft. $167
2018-11-13 Single Family Colonial 52 Luna St Providence, RI 02904 $179,900 1,968 sq. ft. 6,098 sq. ft. $91
2018-11-13 Single Family Raised Ranch 25 Horton St Providence, RI 02904 $199,900 984 sq. ft. 4,792 sq. ft. $203
2018-11-12 Single Family Bungalow; Cottage 551 Pleasant Valley Pkwy Providence, RI 02908 $155,000 1,142 sq. ft. 3,920 sq. ft. $136
2018-11-07 Single Family Bungalow 1729 Chalkstone Av Providence, RI 02909 $160,900 1,183 sq. ft. 6,098 sq. ft. $136
2018-11-06 Single Family Colonial 66 Christopher St Providence, RI 02904 $289,900 1,560 sq. ft. 4,356 sq. ft. $186
2018-11-01 Single Family Victorian 291 Massachusetts Av Providence, RI 02905 $179,900 1,872 sq. ft. 3,920 sq. ft. $96
2018-11-01 Single Family Cape Cod 213 Unit St Providence, RI 02909 $154,900 720 sq. ft. 4,792 sq. ft. $215
2018-11-01 Single Family 95 Providence St Providence, RI 02907 $180,000 1,620 sq. ft. 4,792 sq. ft. $111
2018-10-31 Single Family Cape Cod; Colonial; Raised Ranch 44 Corinth St Providence, RI 02907 $222,000 1,856 sq. ft. 4,356 sq. ft. $120
2018-10-31 Single Family Ranch 20 Calhoun Av Providence, RI 02907 $173,500 1,056 sq. ft. 2,614 sq. ft. $164
2018-10-29 Single Family Ranch 27 Verdic St Providence, RI 02909 $224,900 998 sq. ft. 4,356 sq. ft. $225
2018-10-29 Single Family Ranch 105 Galileo Av Providence, RI 02909 $249,000 1,256 sq. ft. 7,405 sq. ft. $198
2018-10-28 Single Family Cape Cod; Colonial 41 Homer St Providence, RI 02905 $199,000 1,344 sq. ft. 2,178 sq. ft. $148
2018-10-28 Single Family Cape Cod 40 Ophelia St Providence, RI 02909 $179,000 1,180 sq. ft. 6,098 sq. ft. $152
2018-10-26 Single Family Colonial 132 Warrington St Providence, RI 02907 $159,900 1,362 sq. ft. 4,792 sq. ft. $117
2018-10-26 Single Family Ranch 129 Springfield St Providence, RI 02909 $144,900 960 sq. ft. 0 sq. ft. $151
2018-10-26 Single Family Cottage; Victorian 15 Kepler St Providence, RI 02908 $159,900 1,230 sq. ft. 4,792 sq. ft. $130
2018-10-23 Single Family Bungalow 16 Searle St Providence, RI 02905 $179,900 1,995 sq. ft. 2,614 sq. ft. $90
2018-10-23 Single Family Ranch 79 Stella St Providence, RI 02909 $164,900 1,045 sq. ft. 4,356 sq. ft. $158
2018-10-21 Single Family Bungalow 42 Ford St Providence, RI 02907 $115,000 1,485 sq. ft. 3,049 sq. ft. $77
2018-10-21 Single Family Cottage 9 Sawyer St Providence, RI 02907 $250,000 1,400 sq. ft. 5,227 sq. ft. $179
2018-10-19 Single Family Colonial 296 Potters Av Providence, RI 02905 $154,900 1,792 sq. ft. 2,178 sq. ft. $86
2018-10-14 Single Family Bungalow 87 Terrace Av Providence, RI 02909 $159,900 1,300 sq. ft. 3,049 sq. ft. $123
2018-10-13 Single Family Cape Cod 87 Jastram St Providence, RI 02908 $269,900 1,401 sq. ft. 4,792 sq. ft. $193
2018-10-11 Single Family Colonial 19 Basswood Av Providence, RI 02908 $269,900 2,036 sq. ft. 5,227 sq. ft. $133
2018-10-08 Single Family Colonial 62 Rosedale St Providence, RI 02909 $124,900 1,414 sq. ft. 4,792 sq. ft. $88
2018-10-08 Single Family Colonial 32 Garfield Av Providence, RI 02908 $129,900 1,123 sq. ft. 4,356 sq. ft. $116
2018-10-05 Single Family 58 Ashmont St Providence, RI 02905 $184,900 1,116 sq. ft. 3,485 sq. ft. $166
2018-10-02 Single Family Colonial 29 Farragut Av Providence, RI 02905 $249,900 1,728 sq. ft. 3,049 sq. ft. $145
2018-09-26 Single Family Bungalow 12 Searle St Providence, RI 02905 $179,900 1,995 sq. ft. 2,178 sq. ft. $90
2018-09-24 Single Family Raised Ranch 4 Cloud St Providence, RI 02909 $245,000 1,008 sq. ft. 4,356 sq. ft. $243
2018-09-17 Single Family Colonial 28 College Rd Providence, RI 02908 $234,900 1,491 sq. ft. 3,485 sq. ft. $158
2018-09-14 Single Family Raised Ranch 61 Trask St Providence, RI 02905 $45,000 1,204 sq. ft. 6,534 sq. ft. $37
2018-09-12 Single Family 98 Atlantic Av Providence, RI 02907 $140,000 1,566 sq. ft. 3,920 sq. ft. $89
2018-09-02 Single Family Ranch 113 Lubec St Providence, RI 02904 $179,900 1,004 sq. ft. 3,049 sq. ft. $179
2018-08-31 Single Family Bungalow 20 Searle St Providence, RI 02905 $179,900 1,508 sq. ft. 3,049 sq. ft. $119
2018-08-31 Single Family Bungalow 100 Miller Av Providence, RI 02905 $125,000 1,402 sq. ft. 4,792 sq. ft. $89
2018-08-30 Single Family Colonial 18 Flora St Providence, RI 02904 $155,000 1,800 sq. ft. 4,356 sq. ft. $86
2018-08-27 Single Family Raised Ranch 12 Linda Ct Providence, RI 02904 $209,900 920 sq. ft. 6,098 sq. ft. $228
2018-08-25 Single Family Bungalow 42 Homer St Providence, RI 02905 $214,900 1,456 sq. ft. 3,049 sq. ft. $148
2018-08-24 Single Family Bungalow 18 Crowninshield St Providence, RI 02909 $179,800 1,251 sq. ft. 2,614 sq. ft. $144
2018-08-23 Single Family Cape Cod 14 Plymouth St Providence, RI 02907 $89,900 832 sq. ft. 2,614 sq. ft. $108
2018-08-21 Single Family Ranch 2 Clove St Providence, RI 02908 $284,900 2,046 sq. ft. 5,663 sq. ft. $139
2018-08-20 Single Family 76 Beaufort St Providence, RI 02908 $150,000 1,761 sq. ft. 5,663 sq. ft. $85
2018-08-16 Single Family Colonial 1159 Smith St Providence, RI 02908 $184,900 1,224 sq. ft. 4,356 sq. ft. $151
2018-08-16 Single Family Colonial 101 Alverson St Providence, RI 02909 $190,000 768 sq. ft. 4,792 sq. ft. $247
2018-08-14 Single Family Raised Ranch 973 Douglas Av Providence, RI 02908 $269,900 1,288 sq. ft. 4,792 sq. ft. $210
2018-08-10 Single Family Bungalow 58 Grosvenor Av Providence, RI 02908 $127,000 1,123 sq. ft. 3,049 sq. ft. $113
2018-08-06 Single Family Raised Ranch 776 Mount Pleasant Av Providence, RI 02908 $274,000 1,400 sq. ft. 8,276 sq. ft. $196
2018-08-05 Single Family Cape Cod 59 Webster Av Providence, RI 02909 $189,000 1,244 sq. ft. 2,178 sq. ft. $152
2018-07-13 Single Family Colonial 635 Chalkstone Av Providence, RI 02908 $169,900 1,295 sq. ft. 2,614 sq. ft. $131
2018-07-12 Single Family Contemporary 14 Maxcy Dr Providence, RI 02906 $701,400 4,392 sq. ft. 9,148 sq. ft. $160
2018-06-29 Single Family Colonial 558 Pleasant Valley Pkwy Providence, RI 02908 $274,900 2,644 sq. ft. 13,068 sq. ft. $104
2018-06-21 Single Family Cape Cod 171 Chad Brown St Providence, RI 02908 $200,000 882 sq. ft. 4,792 sq. ft. $227
2018-06-06 Single Family Bungalow 176 Jastram St Providence, RI 02908 $234,900 1,200 sq. ft. 4,792 sq. ft. $196
2018-06-05 Single Family Colonial 1003 Douglas Av Providence, RI 02904 $189,000 1,664 sq. ft. 3,485 sq. ft. $114
2018-05-31 Single Family Colonial 125 Reservoir Av Providence, RI 02907 $189,900 1,347 sq. ft. 3,049 sq. ft. $141
2018-05-16 Single Family Cape Cod 42 Prosper St Providence, RI 02904 $174,900 1,092 sq. ft. 6,098 sq. ft. $160
2018-05-10 Single Family Colonial 39 Hymer St Providence, RI 02908 $249,000 1,700 sq. ft. 3,049 sq. ft. $146
2018-05-08 Single Family Ranch 1 Ralston St Providence, RI 02904 $248,000 1,136 sq. ft. 7,405 sq. ft. $218
2018-04-16 Single Family Bungalow 45 Sisson St Providence, RI 02909 $174,900 1,248 sq. ft. 3,049 sq. ft. $140
2018-03-21 Single Family Cottage; Victorian 183 Alabama Av Providence, RI 02905 $239,900 1,200 sq. ft. 6,534 sq. ft. $200
2018-03-20 Single Family Cape Cod 93 Bowlet St Providence, RI 02909 $159,900 1,165 sq. ft. 4,356 sq. ft. $137
2018-03-17 Single Family Bungalow 222 Sterling Av Providence, RI 02909 $159,900 1,230 sq. ft. 3,920 sq. ft. $130
2017-10-21 Single Family Colonial 9 Applegate Lane Providence, RI 02905 $184,900 1,386 sq. ft. 2,614 sq. ft. $133
2017-09-28 Single Family Cape Cod 32 Malvern St Providence, RI 02904 $207,000 1,766 sq. ft. 9,583 sq. ft. $117
2017-09-13 Single Family Colonial; Cottage 69 - 61,71 Thornton St Providence, RI 02909 $190,000 1,636 sq. ft. 8,276 sq. ft. $116
2017-09-11 Single Family Cottage 52 Borinquen St Providence, RI 02905 $129,900 1,266 sq. ft. 7,405 sq. ft. $103
2017-08-24 Single Family Ranch 19 Bassi Lane Providence, RI 02909 $219,900 1,712 sq. ft. 13,068 sq. ft. $128
2017-08-14 Single Family Victorian 68 Pitman St Providence, RI 02906 $399,000 1,119 sq. ft. 7,841 sq. ft. $357
2017-07-06 Single Family Ranch 9 Evelyn St Providence, RI 02909 $189,000 1,056 sq. ft. 6,970 sq. ft. $179
2017-07-03 Single Family Colonial; Victorian 130 Mount Pleasant Av Providence, RI 02908 $159,900 1,362 sq. ft. 6,534 sq. ft. $117
2017-06-26 Single Family Bungalow 263 California Av Providence, RI 02905 $139,900 1,508 sq. ft. 3,049 sq. ft. $93
2017-05-20 Single Family Split Level 86 Erie St Providence, RI 02908 $289,900 1,387 sq. ft. 6,098 sq. ft. $209
2017-05-03 Single Family Ranch 24 Brockton St Providence, RI 02904 $179,000 1,258 sq. ft. 6,534 sq. ft. $142
2017-03-30 Single Family Victorian 137 Wallace St Providence, RI 02909 $199,900 2,346 sq. ft. 3,920 sq. ft. $85
2017-03-28 Single Family Colonial 23 Annie St Providence, RI 02908 $279,900 1,560 sq. ft. 3,920 sq. ft. $179
2017-03-27 Single Family Bungalow 126 Washington Av Providence, RI 02905 $119,900 840 sq. ft. 3,485 sq. ft. $143
2017-03-21 Single Family Colonial 37 Homer St Providence, RI 02905 $90,000 3,049 sq. ft.
2017-03-15 Single Family Contemporary 92 Seamans St Providence, RI 02908 $199,000 1,082 sq. ft. 8,276 sq. ft. $184
2017-03-07 Single Family Colonial 122 Laban St Providence, RI 02909 $249,900 1,768 sq. ft. 10,019 sq. ft. $141